createdAt,value
2017-11-17T00:00:38.400Z,29.83
2017-11-17T00:03:06.687Z,27.80
2017-11-17T00:05:34.189Z,27.37
2017-11-17T00:08:01.718Z,29.00
2017-11-17T00:10:29.223Z,31.00
2017-11-17T00:12:56.753Z,27.27
2017-11-17T00:15:24.267Z,29.60
2017-11-17T00:17:52.569Z,29.57
2017-11-17T00:20:20.076Z,29.80
2017-11-17T00:22:47.599Z,27.57
2017-11-17T00:25:15.108Z,28.03
2017-11-17T00:27:43.396Z,27.90
2017-11-17T00:30:10.933Z,26.00
2017-11-17T00:32:38.456Z,28.27
2017-11-17T00:35:05.966Z,26.63
2017-11-17T00:37:34.256Z,28.30
2017-11-17T00:40:01.773Z,27.70
2017-11-17T00:42:29.301Z,29.07
2017-11-17T00:44:56.817Z,29.20
2017-11-17T00:47:25.108Z,30.70
2017-11-17T00:49:52.625Z,28.37
2017-11-17T00:52:20.132Z,27.00
2017-11-17T00:54:47.668Z,26.90
2017-11-17T00:57:15.940Z,29.57
2017-11-17T00:59:44.231Z,27.73
2017-11-17T01:02:11.748Z,28.60
2017-11-17T01:04:39.276Z,28.23
2017-11-17T01:07:06.788Z,28.67
2017-11-17T01:09:35.081Z,30.40
2017-11-17T01:12:02.601Z,31.13
2017-11-17T01:14:30.128Z,30.10
2017-11-17T01:16:57.636Z,27.70
2017-11-17T01:19:25.933Z,27.97
2017-11-17T01:21:53.441Z,28.60
2017-11-17T01:24:20.987Z,29.30
2017-11-17T01:26:48.501Z,30.20
2017-11-17T01:29:16.788Z,28.00
2017-11-17T01:31:44.307Z,30.53
2017-11-17T01:34:11.832Z,31.80
2017-11-17T01:36:39.349Z,29.90
2017-11-17T01:39:07.641Z,27.37
2017-11-17T01:41:35.152Z,32.63
2017-11-17T01:44:02.684Z,29.03
2017-11-17T01:46:30.193Z,29.07
2017-11-17T01:48:58.467Z,29.43
2017-11-17T01:51:26.756Z,27.67
2017-11-17T01:53:55.024Z,30.60
2017-11-17T01:56:23.329Z,30.70
2017-11-17T01:58:50.837Z,30.47
2017-11-17T02:01:18.360Z,29.90
2017-11-17T02:03:45.877Z,29.47
2017-11-17T02:06:14.173Z,27.77
2017-11-17T02:08:41.686Z,31.00
2017-11-17T02:11:09.219Z,30.00
2017-11-17T02:13:36.724Z,30.90
2017-11-17T02:16:05.012Z,31.30
2017-11-17T02:18:33.284Z,32.10
2017-11-17T02:21:01.576Z,32.20
2017-11-17T02:23:29.093Z,31.80
2017-11-17T02:25:56.624Z,32.87
2017-11-17T02:28:24.136Z,30.10
2017-11-17T02:30:52.425Z,30.53
2017-11-17T02:33:19.936Z,29.90
2017-11-17T02:35:47.465Z,29.13
2017-11-17T02:38:14.968Z,28.47
2017-11-17T02:40:43.269Z,30.67
2017-11-17T02:43:10.776Z,29.37
2017-11-17T02:45:39.104Z,31.20
2017-11-17T02:48:06.609Z,31.50
2017-11-17T02:50:34.120Z,30.63
2017-11-17T02:53:01.647Z,32.60
2017-11-17T02:55:29.155Z,30.60
2017-11-17T02:57:56.681Z,29.90
2017-11-17T03:00:24.962Z,28.77
2017-11-17T03:02:53.257Z,30.10
2017-11-17T03:05:20.772Z,31.97
2017-11-17T03:07:48.300Z,30.93
2017-11-17T03:10:15.806Z,29.87
2017-11-17T03:12:44.096Z,31.90
2017-11-17T03:15:11.604Z,31.90
2017-11-17T03:17:39.128Z,32.10
2017-11-17T03:20:06.636Z,30.07
2017-11-17T03:22:34.171Z,30.07
2017-11-17T03:25:01.692Z,31.73
2017-11-17T03:27:29.239Z,28.50
2017-11-17T03:29:57.511Z,30.00
2017-11-17T03:32:25.794Z,31.70
2017-11-17T03:34:54.064Z,30.17
2017-11-17T03:37:22.371Z,29.83
2017-11-17T03:39:49.878Z,27.20
2017-11-17T03:42:17.424Z,27.27
2017-11-17T03:44:44.937Z,30.90
2017-11-17T03:47:12.452Z,31.10
2017-11-17T03:49:39.984Z,28.80
2017-11-17T03:52:07.492Z,29.87
2017-11-17T03:54:35.788Z,28.50
2017-11-17T03:57:03.307Z,29.80
2017-11-17T03:59:30.842Z,30.67
2017-11-17T04:01:58.348Z,30.37
2017-11-17T04:04:25.879Z,27.87
2017-11-17T04:06:53.388Z,29.00
2017-11-17T04:09:20.911Z,30.87
2017-11-17T04:11:49.189Z,26.40
2017-11-17T04:14:17.476Z,30.80
2017-11-17T04:16:45.013Z,29.70
2017-11-17T04:19:13.309Z,28.60
2017-11-17T04:21:40.820Z,31.77
2017-11-17T04:24:08.348Z,30.50
2017-11-17T04:26:35.852Z,29.60
2017-11-17T04:29:03.381Z,29.50
2017-11-17T04:31:30.896Z,31.07
2017-11-17T04:33:59.184Z,29.70
2017-11-17T04:36:26.700Z,30.73
2017-11-17T04:38:54.251Z,30.67
2017-11-17T04:41:21.956Z,30.97
2017-11-17T04:43:50.241Z,31.10
2017-11-17T04:46:17.764Z,33.67
2017-11-17T04:48:45.271Z,30.40
2017-11-17T04:51:12.803Z,30.73
2017-11-17T04:53:41.079Z,29.20
2017-11-17T04:56:09.370Z,33.13
2017-11-17T04:58:36.887Z,30.10
2017-11-17T05:01:04.417Z,30.20
2017-11-17T05:03:31.919Z,30.03
2017-11-17T05:06:00.205Z,29.60
2017-11-17T05:08:28.475Z,31.27
2017-11-17T05:10:56.766Z,31.57
2017-11-17T05:13:24.292Z,33.37
2017-11-17T05:15:51.816Z,27.27
2017-11-17T05:18:20.090Z,31.20
2017-11-17T05:20:47.626Z,29.60
2017-11-17T05:23:15.141Z,30.47
2017-11-17T05:25:42.664Z,30.40
2017-11-17T05:28:10.162Z,32.27
2017-11-17T05:30:37.684Z,30.07
2017-11-17T05:33:05.188Z,30.50
2017-11-17T05:35:33.484Z,30.00
2017-11-17T05:38:00.989Z,33.63
2017-11-17T05:40:28.496Z,30.47
2017-11-17T05:42:56.020Z,32.23
2017-11-17T05:45:23.531Z,31.43
2017-11-17T05:47:51.059Z,29.90
2017-11-17T05:50:19.336Z,30.80
2017-11-17T05:52:47.625Z,30.07
2017-11-17T05:55:15.132Z,30.50
2017-11-17T05:57:42.666Z,30.57
2017-11-17T06:00:10.163Z,31.50
2017-11-17T06:02:37.680Z,31.57
2017-11-17T06:05:05.189Z,31.30
2017-11-17T06:07:32.720Z,29.20
2017-11-17T06:10:00.229Z,29.20
2017-11-17T06:12:27.756Z,31.17
2017-11-17T06:14:55.256Z,30.50
2017-11-17T06:17:22.776Z,31.07
2017-11-17T06:19:50.276Z,31.20
2017-11-17T06:22:17.797Z,29.87
2017-11-17T06:24:45.292Z,26.77
2017-11-17T06:27:12.828Z,28.20
2017-11-17T06:29:41.095Z,29.83
2017-11-17T06:32:09.368Z,29.80
2017-11-17T06:34:37.660Z,28.97
2017-11-17T06:37:05.929Z,30.30
2017-11-17T06:39:34.216Z,32.23
2017-11-17T06:42:01.720Z,30.90
2017-11-17T06:44:29.240Z,32.23
2017-11-17T06:46:56.739Z,27.47
2017-11-17T06:49:24.255Z,28.73
2017-11-17T06:51:51.771Z,31.73
2017-11-17T06:54:19.301Z,33.87
2017-11-17T06:56:46.807Z,31.00
2017-11-17T06:59:15.095Z,32.00
2017-11-17T07:01:43.365Z,32.70
2017-11-17T07:04:11.656Z,31.57
2017-11-17T07:06:39.164Z,28.60
2017-11-17T07:09:06.690Z,29.37
2017-11-17T07:11:34.207Z,27.67
2017-11-17T07:14:02.493Z,29.90
2017-11-17T07:16:30.013Z,29.27
2017-11-17T07:18:57.536Z,28.90
2017-11-17T07:21:25.040Z,30.47
2017-11-17T07:23:52.591Z,30.17
2017-11-17T07:26:20.092Z,29.80
2017-11-17T07:28:47.588Z,28.67
2017-11-17T07:31:15.113Z,29.67
2017-11-17T07:33:42.624Z,30.63
2017-11-17T07:36:10.147Z,29.63
2017-11-17T07:38:37.653Z,29.00
2017-11-17T07:41:05.179Z,30.87
2017-11-17T07:43:32.688Z,31.97
2017-11-17T07:46:00.984Z,30.20
2017-11-17T07:48:28.511Z,30.57
2017-11-17T07:50:56.808Z,29.93
2017-11-17T07:53:24.316Z,29.27
2017-11-17T07:55:51.857Z,30.93
2017-11-17T07:58:20.136Z,31.60
2017-11-17T08:00:47.655Z,30.87
2017-11-17T08:03:15.939Z,29.13
2017-11-17T08:05:43.773Z,29.17
2017-11-17T08:08:11.272Z,27.63
2017-11-17T08:10:38.818Z,28.10
2017-11-17T08:13:06.337Z,31.90
2017-11-17T08:15:33.869Z,32.83
2017-11-17T08:18:13.092Z,31.50
2017-11-17T08:20:40.616Z,32.37
2017-11-17T08:23:08.893Z,29.77
2017-11-17T08:25:37.170Z,36.23
2017-11-17T08:28:05.459Z,30.00
2017-11-17T08:30:32.997Z,32.80
2017-11-17T08:33:01.288Z,27.50
2017-11-17T08:35:28.800Z,26.97
2017-11-17T08:37:56.338Z,28.93
2017-11-17T08:40:23.849Z,28.77
2017-11-17T08:42:52.146Z,28.90
2017-11-17T08:45:19.656Z,33.23
2017-11-17T08:47:47.181Z,29.00
2017-11-17T08:50:14.687Z,32.37
2017-11-17T08:52:42.217Z,31.30
2017-11-17T08:55:09.733Z,32.27
2017-11-17T08:57:37.269Z,27.00
2017-11-17T09:00:05.549Z,29.70
2017-11-17T09:02:33.842Z,29.50
2017-11-17T09:05:01.365Z,31.23
2017-11-17T09:07:28.895Z,30.77
2017-11-17T09:09:57.170Z,29.97
2017-11-17T09:12:24.689Z,29.07
2017-11-17T09:14:52.196Z,29.10
2017-11-17T09:17:19.723Z,29.60
2017-11-17T09:19:47.249Z,29.57
2017-11-17T09:22:15.526Z,28.43
2017-11-17T09:24:43.826Z,32.90
2017-11-17T09:27:11.336Z,29.53
2017-11-17T09:29:38.945Z,30.73
2017-11-17T09:32:06.466Z,30.33
2017-11-17T09:34:34.001Z,34.30
2017-11-17T09:37:01.515Z,30.30
2017-11-17T09:39:29.041Z,27.10
2017-11-17T09:41:56.550Z,29.27
2017-11-17T09:44:24.081Z,29.47
2017-11-17T09:46:52.356Z,26.83
2017-11-17T09:49:20.654Z,27.00
2017-11-17T09:51:48.169Z,27.97
2017-11-17T09:54:15.688Z,29.73
2017-11-17T09:56:43.194Z,26.70
2017-11-17T09:59:11.495Z,27.07
2017-11-17T10:01:39.000Z,27.80
2017-11-17T10:04:06.528Z,28.93
2017-11-17T10:06:34.040Z,27.80
2017-11-17T10:09:02.332Z,28.47
2017-11-17T10:14:34.408Z,28.57
2017-11-17T10:17:02.678Z,26.17
2017-11-17T10:19:30.973Z,27.30
2017-11-17T10:21:59.245Z,29.23
2017-11-17T10:24:27.540Z,26.20
2017-11-17T10:26:55.057Z,28.80
2017-11-17T10:29:22.606Z,29.10
2017-11-17T10:31:50.471Z,29.90
2017-11-17T10:34:18.045Z,26.10
2017-11-17T10:36:46.378Z,29.63
2017-11-17T10:39:14.022Z,27.80
2017-11-17T10:41:42.380Z,26.83
2017-11-17T10:44:09.940Z,28.60
2017-11-17T10:46:37.578Z,26.40
2017-11-17T10:49:05.897Z,27.37
2017-11-17T10:51:33.494Z,28.17
2017-11-17T10:54:01.031Z,27.97
2017-11-17T10:56:30.396Z,27.80
2017-11-17T10:59:03.722Z,26.93
2017-11-17T11:01:31.336Z,28.83
2017-11-17T11:04:00.560Z,26.00
2017-11-17T11:06:28.146Z,25.87
2017-11-17T11:08:55.725Z,27.00
2017-11-17T11:11:29.663Z,28.20
2017-11-17T11:13:57.969Z,26.47
2017-11-17T11:16:25.522Z,26.80
2017-11-17T11:18:53.101Z,27.70
2017-11-17T11:21:20.650Z,23.57
2017-11-17T11:23:48.193Z,26.13
2017-11-17T11:26:15.819Z,28.13
2017-11-17T11:28:43.397Z,26.77
2017-11-17T11:31:11.745Z,26.13
2017-11-17T11:33:39.373Z,26.80
2017-11-17T11:36:07.103Z,25.23
2017-11-17T11:38:35.509Z,25.03
2017-11-17T11:41:03.086Z,25.30
2017-11-17T11:43:30.643Z,25.37
2017-11-17T11:45:58.182Z,26.70
2017-11-17T11:48:25.731Z,24.73
2017-11-17T11:50:53.255Z,25.23
2017-11-17T11:53:20.795Z,26.10
2017-11-17T11:55:48.310Z,25.57
2017-11-17T11:58:15.872Z,24.87
2017-11-17T12:00:43.385Z,23.47
2017-11-17T12:03:10.908Z,25.33
2017-11-17T12:05:38.415Z,25.57
2017-11-17T12:08:06.736Z,22.93
2017-11-17T12:10:34.261Z,25.00
2017-11-17T12:13:02.556Z,25.03
2017-11-17T12:15:30.130Z,25.80
2017-11-17T12:17:57.661Z,24.23
2017-11-17T12:20:25.938Z,24.80
2017-11-17T12:22:54.228Z,23.03
2017-11-17T12:25:21.740Z,24.20
2017-11-17T12:27:49.271Z,24.37
2017-11-17T12:30:16.808Z,23.53
2017-11-17T12:32:44.388Z,25.47
2017-11-17T12:35:11.923Z,24.60
2017-11-17T12:37:39.448Z,23.97
2017-11-17T12:40:06.966Z,24.40
2017-11-17T12:42:34.514Z,25.87
2017-11-17T12:45:02.020Z,22.63
2017-11-17T12:47:29.532Z,25.47
2017-11-17T12:49:57.056Z,25.40
2017-11-17T12:52:25.336Z,23.53
2017-11-17T12:54:52.867Z,24.03
2017-11-17T12:57:20.468Z,24.00
2017-11-17T12:59:47.993Z,24.83
2017-11-17T13:02:16.271Z,26.20
2017-11-17T13:04:44.586Z,23.70
2017-11-17T13:07:12.141Z,23.20
2017-11-17T13:09:39.664Z,25.60
2017-11-17T13:12:07.948Z,23.93
2017-11-17T13:14:36.249Z,23.50
2017-11-17T13:17:03.808Z,23.73
2017-11-17T13:19:31.332Z,23.50
2017-11-17T13:21:59.612Z,24.70
2017-11-17T13:24:27.912Z,24.90
2017-11-17T13:26:55.489Z,23.17
2017-11-17T13:29:23.016Z,24.10
2017-11-17T13:31:51.290Z,23.40
2017-11-17T13:34:19.593Z,23.27
2017-11-17T13:36:47.112Z,24.80
2017-11-17T13:39:15.432Z,23.43
2017-11-17T13:41:42.984Z,24.60
2017-11-17T13:44:10.504Z,24.87
2017-11-17T13:46:39.065Z,23.60
2017-11-17T13:49:07.469Z,24.00
2017-11-17T13:51:35.768Z,24.27
2017-11-17T13:54:03.286Z,24.57
2017-11-17T13:56:30.816Z,25.07
2017-11-17T13:58:58.359Z,24.43
2017-11-17T14:01:25.920Z,24.90
2017-11-17T14:03:53.426Z,22.30
2017-11-17T14:06:20.949Z,25.77
2017-11-17T14:08:48.475Z,24.50
2017-11-17T14:11:16.008Z,24.20
2017-11-17T14:13:43.528Z,24.97
2017-11-17T14:16:11.061Z,23.17
2017-11-17T14:18:38.577Z,25.27
2017-11-17T14:21:06.108Z,24.30
2017-11-17T14:23:34.680Z,25.17
2017-11-17T14:26:02.281Z,25.00
2017-11-17T14:28:29.874Z,24.70
2017-11-17T14:30:58.265Z,24.33
2017-11-17T14:35:59.858Z,25.00
2017-11-17T14:38:27.419Z,23.50
2017-11-17T14:40:54.983Z,23.70
2017-11-17T14:43:22.680Z,26.47
2017-11-17T14:45:50.377Z,24.03
2017-11-17T14:48:18.024Z,24.60
2017-11-17T14:50:45.667Z,25.33
2017-11-17T14:53:13.189Z,24.27
2017-11-17T14:55:40.760Z,26.00
2017-11-17T14:58:08.450Z,25.17
2017-11-17T15:00:36.869Z,28.97
2017-11-17T15:03:04.412Z,26.40
2017-11-17T15:05:31.996Z,25.53
2017-11-17T15:07:59.593Z,25.80
2017-11-17T15:10:27.157Z,25.50
2017-11-17T15:12:54.782Z,26.10
2017-11-17T15:15:22.400Z,26.20
2017-11-17T15:17:49.981Z,27.63
2017-11-17T15:20:17.597Z,26.00
2017-11-17T15:22:45.528Z,26.00
2017-11-17T15:25:13.076Z,25.27
2017-11-17T15:27:40.623Z,25.83
2017-11-17T15:30:08.195Z,25.80
2017-11-17T15:32:35.745Z,24.83
2017-11-17T15:35:03.282Z,25.47
2017-11-17T15:37:30.845Z,28.50
2017-11-17T15:39:58.383Z,27.67
2017-11-17T15:42:26.711Z,25.80
2017-11-17T15:44:54.250Z,22.73
2017-11-17T15:47:21.851Z,25.87
2017-11-17T15:49:49.443Z,24.50
2017-11-17T15:52:17.801Z,29.33
2017-11-17T15:54:45.437Z,40.47
2017-11-17T15:59:47.147Z,33.87
2017-11-17T16:02:15.912Z,31.87
2017-11-17T16:04:43.487Z,50.00
2017-11-17T16:07:11.067Z,51.37
2017-11-17T16:09:39.409Z,43.93
2017-11-17T16:12:06.962Z,33.77
2017-11-17T16:14:34.516Z,27.90
2017-11-17T16:17:02.101Z,23.80
2017-11-17T16:19:30.458Z,23.00
2017-11-17T16:21:58.034Z,24.17
2017-11-17T16:24:25.600Z,22.80
2017-11-17T16:26:53.988Z,27.13
2017-11-17T16:31:56.342Z,25.00
2017-11-17T16:34:23.887Z,22.67
2017-11-17T16:36:51.442Z,23.47
2017-11-17T16:39:19.010Z,21.23
2017-11-17T16:41:46.574Z,24.73
2017-11-17T16:44:14.214Z,23.43
2017-11-17T16:46:41.756Z,21.63
2017-11-17T16:49:09.272Z,22.90
2017-11-17T16:51:36.805Z,22.20
2017-11-17T16:54:04.324Z,21.40
2017-11-17T16:56:32.612Z,23.23
2017-11-17T16:59:00.129Z,21.53
2017-11-17T17:01:27.661Z,23.23
2017-11-17T17:03:55.167Z,21.73
2017-11-17T17:06:23.469Z,22.83
2017-11-17T17:08:50.988Z,22.10
2017-11-17T17:11:19.279Z,22.63
2017-11-17T17:13:47.567Z,21.10
2017-11-17T17:16:15.107Z,22.00
2017-11-17T17:18:43.406Z,25.60
2017-11-17T17:21:10.936Z,22.73
2017-11-17T17:23:39.509Z,24.23
2017-11-17T17:26:07.037Z,23.10
2017-11-17T17:28:34.784Z,27.13
2017-11-17T17:31:03.153Z,25.27
2017-11-17T17:33:30.664Z,28.40
2017-11-17T17:35:58.220Z,26.47
2017-11-17T17:38:25.731Z,25.10
2017-11-17T17:40:53.492Z,27.63
2017-11-17T17:43:21.018Z,27.00
2017-11-17T17:45:49.292Z,28.73
2017-11-17T17:48:16.828Z,22.30
2017-11-17T17:50:44.344Z,23.37
2017-11-17T17:53:11.874Z,25.10
2017-11-17T17:55:40.157Z,23.73
2017-11-17T17:58:08.448Z,24.50
2017-11-17T18:00:35.960Z,24.17
2017-11-17T18:03:03.495Z,25.47
2017-11-17T18:05:31.775Z,24.87
2017-11-17T18:07:59.304Z,23.53
2017-11-17T18:10:26.816Z,23.63
2017-11-17T18:12:54.336Z,25.20
2017-11-17T18:15:21.844Z,24.03
2017-11-17T18:17:49.374Z,26.87
2017-11-17T18:20:16.892Z,24.60
2017-11-17T18:22:44.421Z,25.30
2017-11-17T18:25:12.716Z,26.37
2017-11-17T18:27:41.032Z,25.80
2017-11-17T18:30:08.575Z,26.10
2017-11-17T18:32:36.087Z,26.37
2017-11-17T18:35:03.596Z,30.43
2017-11-17T18:37:31.152Z,27.20
2017-11-17T18:39:58.707Z,26.63
2017-11-17T18:42:27.025Z,26.93
2017-11-17T18:44:54.553Z,28.03
2017-11-17T18:47:22.816Z,26.03
2017-11-17T18:49:50.376Z,26.80
2017-11-17T18:52:18.624Z,29.07
2017-11-17T18:54:46.945Z,34.13
2017-11-17T18:57:14.458Z,34.20
2017-11-17T18:59:42.761Z,32.93
2017-11-17T19:02:10.282Z,32.40
2017-11-17T19:04:38.581Z,30.30
2017-11-17T19:07:06.110Z,31.17
2017-11-17T19:09:33.694Z,30.60
2017-11-17T19:12:01.170Z,31.87
2017-11-17T19:14:28.754Z,27.90
2017-11-17T19:16:56.236Z,33.50
2017-11-17T19:19:23.764Z,30.50
2017-11-17T19:21:51.276Z,31.17
2017-11-17T19:24:19.568Z,28.60
2017-11-17T19:26:47.080Z,30.13
2017-11-17T19:29:14.619Z,30.37
2017-11-17T19:31:42.124Z,29.90
2017-11-17T19:34:10.442Z,32.03
2017-11-17T19:36:37.963Z,29.53
2017-11-17T19:39:05.548Z,31.10
2017-11-17T19:41:33.067Z,34.35
2017-11-17T19:44:01.348Z,31.30
2017-11-17T19:46:29.641Z,28.57
2017-11-17T19:48:57.911Z,29.47
2017-11-17T19:51:26.256Z,27.87
2017-11-17T19:53:53.769Z,29.63
2017-11-17T19:56:21.338Z,31.70
2017-11-17T19:58:48.853Z,29.00
2017-11-17T20:01:17.146Z,30.20
2017-11-17T20:03:45.424Z,29.77
2017-11-17T20:06:13.815Z,30.37
2017-11-17T20:08:41.385Z,29.10
2017-11-17T20:11:08.932Z,31.00
2017-11-17T20:13:36.496Z,31.03
2017-11-17T20:16:04.076Z,31.20
2017-11-17T20:18:31.619Z,31.07
2017-11-17T20:20:59.193Z,28.60
2017-11-17T20:23:26.756Z,30.33
2017-11-17T20:25:54.335Z,30.00
2017-11-17T20:28:21.848Z,28.67
2017-11-17T20:30:49.403Z,29.60
2017-11-17T20:33:16.968Z,28.10
2017-11-17T20:35:44.481Z,29.43
2017-11-17T20:38:12.084Z,28.50
2017-11-17T20:40:39.600Z,27.53
2017-11-17T20:43:07.573Z,29.80
2017-11-17T20:45:36.588Z,30.83
2017-11-17T20:48:04.984Z,30.80
2017-11-17T20:50:33.392Z,30.67
2017-11-17T20:53:00.923Z,29.40
2017-11-17T20:55:28.499Z,28.83
2017-11-17T20:57:56.092Z,27.00
2017-11-17T21:00:24.685Z,29.17
2017-11-17T21:02:52.220Z,30.30
2017-11-17T21:05:19.967Z,31.67
2017-11-17T21:07:47.572Z,36.80
2017-11-17T21:10:16.005Z,35.20
2017-11-17T21:12:43.581Z,41.40
2017-11-17T21:15:11.101Z,44.63
2017-11-17T21:17:38.637Z,31.27
2017-11-17T21:20:06.988Z,28.67
2017-11-17T21:22:34.520Z,30.27
2017-11-17T21:25:02.024Z,29.20
2017-11-17T21:27:30.413Z,30.43
2017-11-17T21:29:58.736Z,30.47
2017-11-17T21:32:26.269Z,30.10
2017-11-17T21:34:53.833Z,32.60
2017-11-17T21:37:21.391Z,27.77
2017-11-17T21:39:48.981Z,29.13
2017-11-17T21:42:16.496Z,28.67
2017-11-17T21:44:44.108Z,25.97
2017-11-17T21:47:11.660Z,27.53
2017-11-17T21:49:39.188Z,25.80
2017-11-17T21:52:06.861Z,25.67
2017-11-17T21:54:34.383Z,24.73
2017-11-17T21:57:02.720Z,26.33
2017-11-17T21:59:30.254Z,27.50
2017-11-17T22:01:57.845Z,26.60
2017-11-17T22:04:25.379Z,27.20
2017-11-17T22:06:52.932Z,28.67
2017-11-17T22:09:20.472Z,28.70
2017-11-17T22:11:48.032Z,30.53
2017-11-17T22:14:15.572Z,29.50
2017-11-17T22:16:43.869Z,29.67
2017-11-17T22:19:11.444Z,27.70
2017-11-17T22:21:38.955Z,29.70
2017-11-17T22:24:06.536Z,28.90
2017-11-17T22:26:34.077Z,29.07
2017-11-17T22:29:02.418Z,27.17
2017-11-17T22:31:30.728Z,29.13
2017-11-17T22:33:59.080Z,27.57
2017-11-17T22:36:26.693Z,27.87
2017-11-17T22:38:54.205Z,25.33
2017-11-17T22:41:21.730Z,25.97
2017-11-17T22:43:49.241Z,30.13
2017-11-17T22:46:17.527Z,30.43
2017-11-17T22:48:45.799Z,27.43
2017-11-17T22:51:14.084Z,29.53
2017-11-17T22:53:42.361Z,28.50
2017-11-17T22:56:10.652Z,30.00
2017-11-17T22:58:38.178Z,29.00
2017-11-17T23:01:06.478Z,27.57
2017-11-17T23:03:33.983Z,28.93
2017-11-17T23:06:01.504Z,28.93
2017-11-17T23:08:29.012Z,28.70
2017-11-17T23:10:56.536Z,30.13
2017-11-17T23:13:24.044Z,26.97
2017-11-17T23:15:52.340Z,27.10
2017-11-17T23:18:20.952Z,26.97
2017-11-17T23:20:48.480Z,26.00
2017-11-17T23:23:16.756Z,26.20
2017-11-17T23:25:45.040Z,28.00
2017-11-17T23:28:12.548Z,27.53
2017-11-17T23:30:40.097Z,27.17
2017-11-17T23:33:07.600Z,26.70
2017-11-17T23:35:35.867Z,26.70
2017-11-17T23:38:04.160Z,27.10
2017-11-17T23:40:31.663Z,27.10
2017-11-17T23:42:59.193Z,25.70
2017-11-17T23:45:26.705Z,28.40
2017-11-17T23:47:54.228Z,30.80
2017-11-17T23:50:22.512Z,31.17
2017-11-17T23:52:50.031Z,27.07
2017-11-17T23:55:17.540Z,28.17
2017-11-17T23:57:45.072Z,27.70
